| Date | Temp | Humidity | Rainfall | Dew Point | Wind Direction | Wind Speed | Wind Pressure | Condition | Visibility |
|---|---|---|---|---|---|---|---|---|---|
| 2025-05-30 12:00:29 | 31 | 70 | 24 | 230 | 15.2 | 1012 | Partly Cloudy (Day) | 20 km | |
| 2025-05-30 11:01:06 | 31 | 66 | 23 | 220 | 15.2 | 1013 | Partly Cloudy (Day) | 20 km | |
| 2025-05-30 09:59:24 | 29 | 73 | 24 | 210 | 15.2 | 1013 | Partly Cloudy (Day) | 20 km | |
| 2025-05-30 09:00:34 | 27 | 75 | 23 | 190 | 15.2 | 1013 | Partly Cloudy (Day) | 20 km | |
| 2025-05-30 08:01:09 | 26 | 87 | 0.00 | 24 | 200 | 11.4 | 1012 | Partly Cloudy (Day) | 20 km |
| 2025-05-30 06:59:59 | 24 | 95 | 0.00 | 24 | 200 | 11.4 | 1011 | Partly Cloudy (Day) | 15 km |
| 2025-05-30 06:00:26 | 24 | 95 | 0.0 | 24 | 190 | 11.4 | 1011 | Partly Cloudy (Day) | 10 km |
| 2025-05-30 05:02:12 | 24 | 94 | 0.00 | 24 | 170 | 11.4 | 1011 | Partly Cloudy (Night) | 10 km |
| 2025-05-30 03:02:02 | 24 | 97 | 0.0 | 23 | 140 | 5.7 | 1011 | Thundershowers | 09 km |
| 2025-05-30 02:01:47 | 24 | 97 | 24 | 130 | 7.6 | 1012 | Thundershowers | 07KM | |
| 2025-05-30 01:06:19 | 25 | 94 | 24 | 160 | 7.6 | 1012 | Thundershowers | 08km | |
| 2025-05-30 00:01:36 | 28 | 89 | 26 | 160 | 5.7 | 1012 | Lightning | 10KM | |
| 2025-05-29 23:01:40 | 28 | 88 | 26 | 060 | 1.9 | 1011 | Lightning | 10KM | |
| 2025-05-29 21:58:49 | 28 | 89 | 26 | 080 | 5.7 | 1011 | Lightning | 10KM | |
| 2025-05-29 20:58:38 | 29 | 83 | 0.00 | 25 | 290 | 1.9 | 1011 | Lightning | 10 KM |
| 2025-05-29 19:58:14 | 29 | 79 | 0.00 | 25 | 350 | 3.8 | 1010 | Lightning | 10 KM |
| 2025-05-29 18:59:08 | 30 | 77 | 0.00 | 25 | 340 | 7.6 | 1009 | Lightning | 10 KM |
| 2025-05-29 17:58:42 | 30 | 74 | 0.00 | 25 | 310 | 11.4 | 1008 | Cloudy | 10 KM |
| 2025-05-29 17:00:03 | 31 | 66 | 24 | 280 | 11.4 | 1008 | Partly Cloudy (Day) | 20 km | |
| 2025-05-29 15:03:49 | 33 | 55 | 23 | 280 | 9.5 | 1008 | Partly Cloudy (Day) | 20 km` | |
| 2025-05-29 14:00:36 | 33 | 57 | 23 | 190 | 7.6 | 1008 | Partly Cloudy (Day) | 20 km | |
| 2025-05-29 12:59:19 | 32 | 62 | 24 | 160 | 7.6 | 1009 | Cloudy | 20KM | |
| 2025-05-29 12:01:11 | 32 | 67 | 25 | 160 | 13.3 | 1010 | Cloudy | 20 KM | |
| 2025-05-29 11:02:38 | 31 | 68 | 24 | 190 | 11.4 | 1010 | Partly Cloudy (Day) | 20 KM | |
| 2025-05-29 09:59:36 | 29 | 70 | 23 | 160 | 7.6 | 1011 | Partly Cloudy (Day) | 20KM |